createdAt,value
2019-01-10T00:01:49.536Z,61.16
2019-01-10T00:04:20.244Z,60.71
2019-01-10T00:09:39.681Z,59.70
2019-01-10T00:12:09.956Z,59.17
2019-01-10T00:14:40.101Z,59.53
2019-01-10T00:17:10.257Z,59.52
2019-01-10T00:19:40.538Z,58.59
2019-01-10T00:22:10.779Z,59.31
2019-01-10T00:24:40.953Z,59.87
2019-01-10T00:27:11.101Z,58.98
2019-01-10T00:29:41.347Z,59.94
2019-01-10T00:32:11.625Z,60.17
2019-01-10T00:34:41.788Z,59.54
2019-01-10T00:37:11.939Z,60.32
2019-01-10T00:39:42.197Z,61.19
2019-01-10T00:42:12.460Z,61.66
2019-01-10T00:44:42.614Z,61.20
2019-01-10T00:47:12.881Z,61.21
2019-01-10T00:49:43.038Z,61.35
2019-01-10T00:52:13.209Z,61.95
2019-01-10T00:54:43.457Z,61.49
2019-01-10T00:57:13.710Z,60.81
2019-01-10T00:59:43.869Z,60.38
2019-01-10T01:02:14.022Z,59.82
2019-01-10T01:04:44.294Z,59.96
2019-01-10T01:07:14.551Z,59.46
2019-01-10T01:12:20.541Z,59.55
2019-01-10T01:14:50.905Z,59.44
2019-01-10T01:17:21.171Z,59.35
2019-01-10T01:19:51.392Z,59.28
2019-01-10T01:22:21.563Z,59.44
2019-01-10T01:24:51.786Z,58.96
2019-01-10T01:27:21.978Z,59.02
2019-01-10T01:29:52.221Z,59.03
2019-01-10T01:32:22.504Z,59.21
2019-01-10T01:34:52.696Z,59.83
2019-01-10T01:37:22.891Z,59.41
2019-01-10T01:42:52.469Z,58.78
2019-01-10T01:45:22.708Z,59.29
2019-01-10T01:47:52.879Z,59.33
2019-01-10T01:50:24.648Z,59.07
2019-01-10T01:52:55.037Z,59.13
2019-01-10T01:55:25.275Z,58.82
2019-01-10T01:57:55.457Z,59.67
2019-01-10T02:00:26.186Z,59.59
2019-01-10T02:02:56.439Z,59.68
2019-01-10T02:05:26.671Z,59.56
2019-01-10T02:07:56.857Z,60.49
2019-01-10T02:10:29.121Z,60.02
2019-01-10T02:12:59.532Z,59.49
2019-01-10T02:15:29.728Z,59.52
2019-01-10T02:17:59.998Z,60.00
2019-01-10T02:20:30.319Z,60.60
2019-01-10T02:23:00.504Z,60.38
2019-01-10T02:25:30.870Z,60.45
2019-01-10T02:28:01.131Z,60.54
2019-01-10T02:30:31.386Z,60.87
2019-01-10T02:33:01.557Z,60.37
2019-01-10T02:35:31.728Z,59.79
2019-01-10T02:38:01.981Z,59.90
2019-01-10T02:40:32.237Z,59.97
2019-01-10T02:43:02.488Z,60.15
2019-01-10T02:45:32.799Z,59.47
2019-01-10T02:48:03.206Z,59.83
2019-01-10T02:50:33.480Z,60.54
2019-01-10T02:53:03.722Z,59.69
2019-01-10T02:55:33.974Z,59.26
2019-01-10T02:58:04.234Z,59.31
2019-01-10T03:00:34.408Z,59.93
2019-01-10T03:06:02.504Z,59.57
2019-01-10T03:08:32.689Z,59.56
2019-01-10T03:11:02.883Z,59.70
2019-01-10T03:13:36.823Z,59.84
2019-01-10T03:16:05.285Z,60.81
2019-01-10T03:18:35.545Z,60.88
2019-01-10T03:21:05.918Z,60.17
2019-01-10T03:23:36.189Z,60.13
2019-01-10T03:26:06.469Z,59.66
2019-01-10T03:28:36.659Z,59.82
2019-01-10T03:31:06.929Z,59.24
2019-01-10T03:33:37.058Z,59.69
2019-01-10T03:36:07.210Z,59.78
2019-01-10T03:38:37.453Z,61.08
2019-01-10T03:41:07.700Z,60.23
2019-01-10T03:43:46.435Z,60.04
2019-01-10T03:48:46.035Z,60.06
2019-01-10T03:51:16.322Z,59.77
2019-01-10T03:53:46.463Z,60.06
2019-01-10T03:56:16.636Z,60.33
2019-01-10T03:58:46.891Z,59.72
2019-01-10T04:01:17.171Z,59.91
2019-01-10T04:03:47.322Z,59.83
2019-01-10T04:06:17.459Z,59.91
2019-01-10T04:08:47.716Z,60.11
2019-01-10T04:11:17.917Z,60.16
2019-01-10T04:13:57.024Z,59.69
2019-01-10T04:16:20.354Z,59.59
2019-01-10T04:18:50.627Z,59.68
2019-01-10T04:21:20.811Z,60.28
2019-01-10T04:23:53.837Z,60.51
2019-01-10T04:26:24.115Z,60.29
2019-01-10T04:28:54.268Z,60.28
2019-01-10T04:31:24.518Z,60.81
2019-01-10T04:33:54.776Z,61.00
2019-01-10T04:36:25.031Z,60.88
2019-01-10T04:38:55.192Z,60.41
2019-01-10T04:41:25.355Z,60.37
2019-01-10T04:43:55.627Z,61.21
2019-01-10T04:46:25.872Z,61.15
2019-01-10T04:48:56.023Z,61.95
2019-01-10T04:51:26.279Z,60.97
2019-01-10T04:53:56.450Z,60.20
2019-01-10T04:56:26.625Z,60.09
2019-01-10T04:58:56.886Z,60.24
2019-01-10T05:01:27.149Z,59.98
2019-01-10T05:03:57.310Z,59.17
2019-01-10T05:06:27.509Z,59.15
2019-01-10T05:08:57.787Z,59.80
2019-01-10T05:11:28.034Z,59.40
2019-01-10T05:13:58.192Z,60.14
2019-01-10T05:16:28.471Z,60.13
2019-01-10T05:18:58.752Z,59.90
2019-01-10T05:21:29.011Z,60.34
2019-01-10T05:23:59.161Z,60.08
2019-01-10T05:26:29.317Z,60.37
2019-01-10T05:28:59.570Z,60.72
2019-01-10T05:31:29.861Z,60.35
2019-01-10T05:34:00.081Z,60.51
2019-01-10T05:36:30.373Z,61.10
2019-01-10T05:39:00.716Z,61.63
2019-01-10T05:41:30.998Z,61.63
2019-01-10T05:44:01.168Z,63.03
2019-01-10T05:46:31.336Z,63.49
2019-01-10T05:49:01.610Z,62.60
2019-01-10T05:51:31.893Z,61.56
2019-01-10T05:54:02.113Z,60.82
2019-01-10T05:56:32.301Z,60.36
2019-01-10T05:59:02.576Z,59.93
2019-01-10T06:01:32.943Z,60.31
2019-01-10T06:15:45.079Z,59.52
2019-01-10T06:18:15.396Z,59.88
2019-01-10T06:20:45.570Z,59.32
2019-01-10T06:23:17.971Z,59.35
2019-01-10T06:25:47.989Z,60.19
2019-01-10T06:28:18.175Z,60.12
2019-01-10T06:30:48.400Z,59.94
2019-01-10T06:33:18.669Z,59.82
2019-01-10T06:35:48.934Z,60.36
2019-01-10T06:38:19.080Z,59.68
2019-01-10T06:40:49.252Z,59.43
2019-01-10T06:43:19.509Z,59.70
2019-01-10T06:45:49.770Z,58.59
2019-01-10T06:48:19.946Z,58.80
2019-01-10T06:50:50.116Z,58.72
2019-01-10T06:56:44.667Z,58.76
2019-01-10T06:59:15.016Z,57.60
2019-01-10T07:01:45.400Z,57.01
2019-01-10T07:04:15.569Z,56.75
2019-01-10T07:06:45.761Z,57.47
2019-01-10T07:09:16.056Z,56.48
2019-01-10T07:11:46.339Z,56.93
2019-01-10T07:14:16.499Z,56.99
2019-01-10T07:16:53.603Z,57.43
2019-01-10T07:19:57.758Z,55.42
2019-01-10T07:22:28.133Z,55.84
2019-01-10T07:24:58.297Z,57.64
2019-01-10T07:27:28.599Z,57.74
2019-01-10T07:29:59.704Z,57.67
2019-01-10T07:32:31.131Z,57.47
2019-01-10T07:35:03.228Z,57.71
2019-01-10T07:37:33.474Z,58.16
2019-01-10T07:40:03.728Z,57.35
2019-01-10T07:42:52.772Z,56.31
2019-01-10T07:45:44.161Z,56.82
2019-01-10T07:48:14.540Z,56.58
2019-01-10T07:50:44.701Z,55.64
2019-01-10T07:53:14.873Z,56.54
2019-01-10T07:55:45.219Z,56.93
2019-01-10T07:58:15.454Z,56.45
2019-01-10T08:00:45.649Z,57.23
2019-01-10T08:03:15.852Z,57.23
2019-01-10T08:05:46.108Z,57.27
2019-01-10T08:08:16.369Z,56.90
2019-01-10T08:10:46.610Z,57.21
2019-01-10T08:13:16.771Z,57.37
2019-01-10T08:15:47.045Z,57.27
2019-01-10T08:18:17.293Z,58.73
2019-01-10T08:20:47.462Z,57.71
2019-01-10T08:23:17.719Z,57.67
2019-01-10T08:25:47.979Z,57.19
2019-01-10T08:28:18.254Z,57.65
2019-01-10T08:30:48.411Z,57.88
2019-01-10T08:33:18.635Z,59.02
2019-01-10T08:35:48.891Z,60.28
2019-01-10T08:38:19.162Z,59.13
2019-01-10T08:40:49.312Z,58.42
2019-01-10T08:43:19.492Z,58.40
2019-01-10T08:45:56.981Z,57.53
2019-01-10T08:48:27.371Z,57.30
2019-01-10T08:50:57.680Z,56.69
2019-01-10T08:53:27.932Z,56.83
2019-01-10T08:55:58.286Z,57.27
2019-01-10T08:58:28.524Z,57.00
2019-01-10T09:00:58.700Z,56.41
2019-01-10T09:03:28.956Z,58.39
2019-01-10T09:06:07.853Z,56.62
2019-01-10T09:08:31.143Z,58.01
2019-01-10T09:11:01.389Z,56.54
2019-01-10T09:13:31.653Z,56.06
2019-01-10T09:16:01.979Z,55.14
2019-01-10T09:18:32.256Z,55.34
2019-01-10T09:21:04.462Z,55.31
2019-01-10T09:23:34.687Z,54.16
2019-01-10T09:26:04.975Z,53.83
2019-01-10T09:28:35.151Z,56.87
2019-01-10T09:31:05.387Z,56.95
2019-01-10T09:33:35.656Z,57.22
2019-01-10T09:36:05.821Z,57.11
2019-01-10T09:38:36.009Z,57.72
2019-01-10T09:41:06.339Z,58.27
2019-01-10T09:43:36.516Z,59.07
2019-01-10T09:46:06.895Z,58.48
2019-01-10T09:48:37.155Z,57.97
2019-01-10T09:51:07.329Z,58.74
2019-01-10T09:53:37.498Z,59.65
2019-01-10T09:56:07.852Z,62.35
2019-01-10T09:58:38.106Z,61.29
2019-01-10T10:01:08.327Z,61.90
2019-01-10T10:03:38.506Z,60.09
2019-01-10T10:06:08.843Z,59.34
2019-01-10T10:08:39.158Z,60.45
2019-01-10T10:11:09.334Z,60.58
2019-01-10T10:13:39.521Z,59.21
2019-01-10T10:16:09.796Z,58.43
2019-01-10T10:18:40.059Z,58.00
2019-01-10T10:21:10.260Z,58.24
2019-01-10T10:23:41.136Z,59.59
2019-01-10T10:26:12.804Z,59.88
2019-01-10T10:28:43.016Z,60.19
2019-01-10T10:31:13.304Z,58.19
2019-01-10T10:33:43.595Z,57.51
2019-01-10T10:36:13.811Z,58.11
2019-01-10T10:38:43.974Z,58.28
2019-01-10T10:41:14.248Z,58.19
2019-01-10T10:43:44.491Z,57.34
2019-01-10T10:46:14.665Z,57.14
2019-01-10T10:48:44.992Z,57.60
2019-01-10T10:51:15.275Z,57.08
2019-01-10T10:53:45.528Z,57.71
2019-01-10T10:56:15.729Z,57.82
2019-01-10T10:58:45.910Z,58.51
2019-01-10T11:01:16.202Z,58.00
2019-01-10T11:03:46.481Z,59.25
2019-01-10T11:06:16.680Z,59.74
2019-01-10T11:08:46.898Z,58.73
2019-01-10T11:11:17.174Z,59.86
2019-01-10T11:13:47.470Z,58.88
2019-01-10T11:16:17.647Z,59.07
2019-01-10T11:18:47.863Z,59.71
2019-01-10T11:21:18.153Z,59.30
2019-01-10T11:26:24.512Z,59.75
2019-01-10T11:28:54.752Z,60.32
2019-01-10T11:31:25.024Z,60.41
2019-01-10T11:37:14.634Z,61.03
2019-01-10T11:39:44.847Z,60.03
2019-01-10T11:42:15.137Z,61.97
2019-01-10T11:44:45.316Z,60.40
2019-01-10T11:47:15.575Z,61.69
2019-01-10T11:49:45.851Z,63.86
2019-01-10T11:52:16.000Z,66.06
2019-01-10T11:54:46.166Z,66.17
2019-01-10T11:57:16.435Z,65.48
2019-01-10T11:59:46.712Z,64.67
2019-01-10T12:02:16.905Z,64.47
2019-01-10T12:04:47.065Z,63.83
2019-01-10T12:07:17.352Z,65.93
2019-01-10T12:09:47.646Z,66.67
2019-01-10T12:12:17.803Z,66.21
2019-01-10T12:14:47.976Z,66.37
2019-01-10T12:17:18.245Z,65.35
2019-01-10T12:19:48.497Z,65.11
2019-01-10T12:22:18.643Z,63.59
2019-01-10T12:24:48.883Z,62.05
2019-01-10T12:27:19.032Z,62.20
2019-01-10T12:29:49.214Z,63.78
2019-01-10T12:32:19.473Z,62.34
2019-01-10T12:34:49.758Z,62.25
2019-01-10T12:37:20.042Z,61.96
2019-01-10T12:39:50.504Z,62.22
2019-01-10T12:42:20.753Z,63.62
2019-01-10T12:44:51.014Z,62.88
2019-01-10T12:47:21.301Z,63.35
2019-01-10T12:49:51.477Z,63.21
2019-01-10T12:52:21.850Z,62.58
2019-01-10T12:54:52.117Z,63.81
2019-01-10T12:57:22.286Z,65.40
2019-01-10T12:59:52.448Z,65.88
2019-01-10T13:02:22.697Z,65.61
2019-01-10T13:04:52.860Z,65.83
2019-01-10T13:07:23.135Z,64.43
2019-01-10T13:09:53.417Z,66.57
2019-01-10T13:12:23.567Z,66.80
2019-01-10T13:14:53.728Z,67.64
2019-01-10T13:17:23.986Z,67.20
2019-01-10T13:19:54.220Z,66.01
2019-01-10T13:22:24.351Z,66.32
2019-01-10T13:24:54.530Z,66.72
2019-01-10T13:27:24.854Z,66.56
2019-01-10T13:29:55.124Z,66.65
2019-01-10T13:32:25.389Z,69.06
2019-01-10T13:34:55.558Z,68.93
2019-01-10T13:37:25.937Z,66.65
2019-01-10T13:39:56.221Z,66.55
2019-01-10T13:42:26.385Z,66.67
2019-01-10T13:44:56.696Z,66.21
2019-01-10T13:47:26.856Z,66.57
2019-01-10T13:49:57.033Z,65.45
2019-01-10T13:52:27.339Z,66.77
2019-01-10T13:54:57.610Z,65.77
2019-01-10T13:57:28.209Z,65.29
2019-01-10T14:02:35.417Z,66.48
2019-01-10T14:05:30.623Z,68.92
2019-01-10T14:08:01.074Z,70.02
2019-01-10T14:10:31.345Z,68.73
2019-01-10T14:13:01.594Z,69.69
2019-01-10T14:18:31.472Z,68.08
2019-01-10T14:21:01.628Z,65.53
2019-01-10T14:23:31.790Z,65.20
2019-01-10T14:26:02.057Z,65.90
2019-01-10T14:28:32.305Z,66.56
2019-01-10T14:33:53.587Z,66.59
2019-01-10T14:36:23.744Z,65.84
2019-01-10T14:38:53.896Z,67.08
2019-01-10T14:41:24.144Z,68.61
2019-01-10T14:43:54.398Z,68.16
2019-01-10T14:46:24.558Z,68.47
2019-01-10T14:48:54.846Z,67.72
2019-01-10T14:51:25.111Z,67.78
2019-01-10T14:53:55.359Z,68.51
2019-01-10T14:56:25.507Z,69.02
2019-01-10T14:58:55.671Z,68.75
2019-01-10T15:01:25.949Z,67.71
2019-01-10T15:03:56.219Z,68.79
2019-01-10T15:06:26.398Z,68.39
2019-01-10T15:08:56.661Z,68.99
2019-01-10T15:11:26.830Z,68.78
2019-01-10T15:13:57.025Z,68.81
2019-01-10T15:16:27.305Z,69.25
2019-01-10T15:18:57.592Z,69.09
2019-01-10T15:21:27.765Z,68.97
2019-01-10T15:23:57.945Z,69.05
2019-01-10T15:26:28.272Z,69.67
2019-01-10T15:28:58.522Z,69.07
2019-01-10T15:31:28.746Z,70.74
2019-01-10T15:33:59.325Z,70.68
2019-01-10T15:36:29.593Z,70.86
2019-01-10T15:38:59.858Z,70.68
2019-01-10T15:41:30.145Z,69.77
2019-01-10T15:44:00.219Z,68.47
2019-01-10T15:46:30.478Z,69.39
2019-01-10T15:49:00.700Z,70.41
2019-01-10T15:51:30.969Z,72.83
2019-01-10T15:54:01.252Z,72.15
2019-01-10T15:56:31.410Z,71.93
2019-01-10T15:59:01.568Z,70.54
2019-01-10T16:01:31.829Z,70.63
2019-01-10T16:04:07.320Z,69.77
2019-01-10T16:06:34.079Z,71.42
2019-01-10T16:09:24.391Z,72.75
2019-01-10T16:11:54.848Z,72.17
2019-01-10T16:14:25.105Z,71.57
2019-01-10T16:16:55.279Z,71.36
2019-01-10T16:19:25.424Z,72.04
2019-01-10T16:21:55.683Z,72.50
2019-01-10T16:24:25.905Z,74.02
2019-01-10T16:26:56.047Z,74.49
2019-01-10T16:29:26.205Z,75.13
2019-01-10T16:31:56.469Z,74.46
2019-01-10T16:34:26.716Z,73.20
2019-01-10T16:36:56.918Z,73.65
2019-01-10T16:39:27.154Z,72.66
2019-01-10T16:41:57.411Z,72.39
2019-01-10T16:44:27.678Z,71.96
2019-01-10T16:46:57.855Z,72.15
2019-01-10T16:49:28.036Z,70.82
2019-01-10T16:51:58.305Z,70.46
2019-01-10T16:54:28.575Z,70.27
2019-01-10T16:56:58.728Z,71.21
2019-01-10T16:59:28.868Z,71.73
2019-01-10T17:01:59.135Z,75.21
2019-01-10T17:04:29.405Z,75.76
2019-01-10T17:06:59.573Z,74.99
2019-01-10T17:09:29.848Z,73.50
2019-01-10T17:14:35.665Z,71.75
2019-01-10T17:17:06.049Z,71.15
2019-01-10T17:19:36.326Z,71.46
2019-01-10T17:25:25.568Z,71.54
2019-01-10T17:27:55.892Z,74.01
2019-01-10T17:30:31.299Z,73.90
2019-01-10T17:33:02.292Z,72.20
2019-01-10T17:35:34.084Z,72.46
2019-01-10T17:41:02.858Z,72.48
2019-01-10T17:43:33.230Z,73.05
2019-01-10T17:46:03.500Z,72.17
2019-01-10T17:48:33.672Z,72.55
2019-01-10T17:51:03.987Z,72.52
2019-01-10T17:53:34.158Z,72.16
2019-01-10T17:56:04.422Z,75.67
2019-01-10T17:58:34.708Z,74.87
2019-01-10T18:04:10.846Z,74.84
2019-01-10T18:06:41.207Z,74.09
2019-01-10T18:09:11.570Z,74.44
2019-01-10T18:11:41.734Z,74.24
2019-01-10T18:14:11.887Z,73.01
2019-01-10T18:16:42.147Z,72.77
2019-01-10T18:19:12.412Z,74.05
2019-01-10T18:21:42.579Z,73.84
2019-01-10T18:24:12.743Z,73.46
2019-01-10T18:26:43.012Z,73.36
2019-01-10T18:29:13.249Z,73.89
2019-01-10T18:31:43.400Z,74.70
2019-01-10T18:34:13.651Z,73.37
2019-01-10T18:36:43.875Z,73.16
2019-01-10T18:39:14.044Z,73.03
2019-01-10T18:41:44.304Z,72.28
2019-01-10T18:44:14.657Z,72.20
2019-01-10T18:46:44.812Z,72.47
2019-01-10T18:49:14.966Z,72.14
2019-01-10T18:51:45.210Z,73.11
2019-01-10T18:54:15.472Z,73.74
2019-01-10T18:56:45.611Z,72.02
2019-01-10T18:59:15.768Z,71.96
2019-01-10T19:01:46.048Z,71.87
2019-01-10T19:06:52.365Z,71.93
2019-01-10T19:09:22.652Z,72.36
2019-01-10T19:11:52.909Z,74.98
2019-01-10T19:14:23.087Z,74.36
2019-01-10T19:16:53.475Z,72.11
2019-01-10T19:19:23.728Z,72.24
2019-01-10T19:21:53.922Z,71.05
2019-01-10T19:24:24.068Z,71.85
2019-01-10T19:26:54.328Z,71.52
2019-01-10T19:29:24.587Z,74.51
2019-01-10T19:31:54.746Z,74.63
2019-01-10T19:34:24.898Z,73.54
2019-01-10T19:36:55.151Z,73.32
2019-01-10T19:39:25.426Z,72.77
2019-01-10T19:41:55.588Z,72.52
2019-01-10T19:44:25.781Z,72.13
2019-01-10T19:46:56.046Z,72.81
2019-01-10T19:49:26.290Z,72.24
2019-01-10T19:51:56.443Z,71.75
2019-01-10T19:54:26.710Z,71.56
2019-01-10T19:56:56.853Z,71.83
2019-01-10T19:59:27.019Z,73.52
2019-01-10T20:01:57.280Z,72.53
2019-01-10T20:04:27.640Z,72.96
2019-01-10T20:06:58.089Z,72.61
2019-01-10T20:09:30.048Z,72.84
2019-01-10T20:12:00.555Z,74.60
2019-01-10T20:14:31.005Z,73.20
2019-01-10T20:17:01.219Z,73.40
2019-01-10T20:19:31.446Z,75.75
2019-01-10T20:22:01.782Z,75.46
2019-01-10T20:27:22.917Z,74.30
2019-01-10T20:29:53.253Z,73.67
2019-01-10T20:35:24.278Z,75.33
2019-01-10T20:37:54.714Z,77.85
2019-01-10T20:40:24.969Z,75.59
2019-01-10T20:42:55.224Z,77.89
2019-01-10T20:45:25.364Z,77.26
2019-01-10T20:50:52.520Z,78.35
2019-01-10T20:53:22.937Z,76.94
2019-01-10T20:55:53.083Z,76.93
2019-01-10T20:58:41.955Z,77.71
2019-01-10T21:01:12.296Z,77.48
2019-01-10T21:03:42.717Z,76.87
2019-01-10T21:06:12.957Z,76.03
2019-01-10T21:08:43.121Z,75.93
2019-01-10T21:11:13.439Z,75.34
2019-01-10T21:13:43.766Z,76.59
2019-01-10T21:16:13.953Z,74.62
2019-01-10T21:18:44.267Z,71.41
2019-01-10T21:21:14.424Z,71.13
2019-01-10T21:23:44.595Z,71.31
2019-01-10T21:26:14.847Z,74.16
2019-01-10T21:28:45.110Z,68.74
2019-01-10T21:31:15.397Z,68.17
2019-01-10T21:33:45.639Z,68.51
2019-01-10T21:36:15.969Z,69.53
2019-01-10T21:38:46.213Z,71.81
2019-01-10T21:41:16.376Z,72.57
2019-01-10T21:43:46.529Z,72.24
2019-01-10T21:51:51.233Z,74.36
2019-01-10T21:57:12.221Z,73.91
2019-01-10T21:59:42.566Z,72.51
2019-01-10T22:02:12.893Z,71.40
2019-01-10T22:04:43.125Z,73.14
2019-01-10T22:07:13.690Z,74.33
2019-01-10T22:09:43.976Z,74.82
2019-01-10T22:12:14.325Z,74.59
2019-01-10T22:14:44.529Z,74.05
2019-01-10T22:17:14.724Z,73.18
2019-01-10T22:19:44.969Z,72.29
2019-01-10T22:22:15.173Z,71.38
2019-01-10T22:27:36.237Z,71.12
2019-01-10T22:33:18.392Z,70.59
2019-01-10T22:35:48.650Z,74.41
2019-01-10T22:38:18.924Z,73.44
2019-01-10T22:40:49.136Z,76.79
2019-01-10T22:43:19.358Z,72.93
2019-01-10T22:45:49.614Z,74.25
2019-01-10T22:48:19.830Z,73.79
2019-01-10T22:50:50.089Z,74.13
2019-01-10T22:56:11.540Z,73.26
2019-01-10T22:58:41.887Z,74.86
2019-01-10T23:04:39.616Z,70.76
2019-01-10T23:10:25.582Z,76.21
2019-01-10T23:12:55.891Z,77.67
2019-01-10T23:18:24.039Z,78.69
2019-01-10T23:23:46.227Z,75.74
2019-01-10T23:26:16.526Z,77.57
2019-01-10T23:28:46.710Z,78.19
2019-01-10T23:31:18.524Z,76.61
2019-01-10T23:33:48.754Z,76.81
2019-01-10T23:36:18.963Z,74.97
2019-01-10T23:41:46.729Z,75.38
2019-01-10T23:44:16.994Z,77.41
2019-01-10T23:46:47.222Z,77.78
2019-01-10T23:49:17.545Z,77.48
2019-01-10T23:51:47.805Z,75.66
2019-01-10T23:57:17.474Z,74.63
2019-01-10T23:59:50.770Z,75.71
